Weather observations for the past three days for
Boca Raton, Boca Raton Airport
| Date | Time (edt) | Wind (kph) | Vis. (km) | Weather | Sky Cond. | Temperature (ºC) | Relative Humidity | Wind Chill (°C) | Heat Index (°C) | Pressure | Precipitation (cm) | ||||||
|---|---|---|---|---|---|---|---|---|---|---|---|---|---|---|---|---|---|
| Air | Dwpt | 6 hour | altimeter (cm) | sea level (mb) | 1 hr | 3 hr | 6 hr | ||||||||||
| Max. | Min. | ||||||||||||||||
| 08 | 18:53 | E 17 | 16.09 | Fair | CLR | 28 | 24 | 79% | 32 | 75.97 | 0.0 | ||||||
| 08 | 17:53 | E 24 G 31 | 16.09 | A Few Clouds | FEW040 | 29 | 24 | 74% | 34 | 75.97 | 0.0 | ||||||
| 08 | 16:53 | E 15 G 26 | 16.09 | A Few Clouds | FEW024 | 29 | 23 | 70% | 33 | 76 | 0.0 | ||||||
| 08 | 15:53 | E 17 G 28 | 16.09 | A Few Clouds | FEW040 | 30 | 22 | 62% | 33 | 76.05 | 0.0 | ||||||
| 08 | 14:53 | E 20 | 16.09 | A Few Clouds | FEW036 | 30 | 21 | 59% | 33 | 76.07 | 0.0 | ||||||
| 08 | 13:53 | E 17 | 16.09 | Fair | CLR | 31 | 20 | 52% | 33 | 76.12 | 0.0 | ||||||
| 08 | 12:53 | E 15 G 28 | 16.09 | Fair | CLR | 30 | 21 | 59% | 33 | 76.2 | 0.0 | ||||||
| 08 | 11:53 | E 15 G 28 | 16.09 | Fair | CLR | 30 | 21 | 59% | 33 | 76.2 | 0.0 | ||||||
| 08 | 10:53 | N 19 | 16.09 | Fair | CLR | 31 | 20 | 52% | 33 | 76.23 | 0.0 | ||||||
| 08 | 09:53 | N 20 | 16.09 | Fair | CLR | 29 | 20 | 58% | 31 | 76.2 | 0.0 | ||||||
| 08 | 08:53 | NW 15 | 16.09 | Fair | CLR | 27 | 20 | 66% | 29 | 76.2 | 0.0 | ||||||
| 08 | 07:53 | NW 11 | 16.09 | Fair | CLR | 25 | 19 | 69% | 26 | 76.15 | 0.0 | ||||||
| 08 | 06:53 | NW 9 | 16.09 | Fair | CLR | 23 | 19 | 78% | 76.1 | 0.0 | |||||||
| 08 | 06:15 | NW 9 | 16.09 | Fair | CLR | 23 | 19 | 78% | 76.07 | 0.0 | |||||||
| 08 | 05:55 | NW 9 | 16.09 | Fair | CLR | 23 | 19 | 78% | 76.05 | 0.0 | |||||||
| 08 | 05:35 | NW 9 | 16.09 | Fair | CLR | 24 | 20 | 78% | 24 | 76.05 | 0.0 | ||||||
| 08 | 05:15 | NW 9 | 16.09 | Fair | CLR | 24 | 20 | 78% | 24 | 76.05 | 0.0 | ||||||
| 08 | 04:55 | NW 9 | 16.09 | Fair | CLR | 24 | 20 | 78% | 24 | 76.05 | 0.0 | ||||||
| 08 | 04:35 | NW 9 | 16.09 | Fair | CLR | 24 | 21 | 83% | 24 | 76.05 | 0.0 | ||||||
| 08 | 04:15 | NW 9 | 16.09 | Fair | CLR | 25 | 22 | 83% | 26 | 76.05 | 0.0 | ||||||
| 08 | 03:35 | NW 7 | 16.09 | Fair | CLR | 25 | 23 | 89% | 26 | 76.05 | 0.0 | ||||||
| 08 | 03:15 | W 6 | 16.09 | Fair | CLR | 25 | 23 | 89% | 26 | 76.05 | 0.0 | ||||||
| 08 | 02:55 | W 7 | 16.09 | Fair | CLR | 25 | 23 | 89% | 26 | 76.05 | 0.0 | ||||||
| 08 | 02:35 | W 4 | 16.09 | Fair | CLR | 25 | 22 | 83% | 26 | 76.07 | 0.0 | ||||||
| 08 | 02:15 | Vrbl 4 | 16.09 | Fair | CLR | 26 | 23 | 84% | 28 | 76.07 | 0.0 | ||||||
| 08 | 01:55 | S 6 | 16.09 | Fair | CLR | 26 | 23 | 28.2 | 25.8 | 84% | 28 | 76.07 | 0.0 | ||||
| 08 | 01:35 | S 6 | 16.09 | Fair | CLR | 26 | 23 | 84% | 28 | 76.1 | 0.0 | ||||||
| 08 | 01:15 | S 9 | 16.09 | Fair | CLR | 26 | 23 | 84% | 28 | 76.1 | 0.0 | ||||||
| 08 | 00:55 | S 11 | 16.09 | Fair | CLR | 27 | 23 | 79% | 30 | 76.1 | 0.0 | ||||||
| 08 | 00:35 | S 9 | 16.09 | Fair | CLR | 27 | 22 | 74% | 29 | 76.1 | 0.0 | ||||||
| 08 | 00:15 | S 7 | 16.09 | Fair | CLR | 27 | 22 | 74% | 29 | 76.12 | 0.0 | ||||||
| 07 | 23:55 | S 9 | 16.09 | Fair | CLR | 27 | 22 | 74% | 29 | 76.12 | 0.0 | ||||||
| 07 | 23:35 | S 13 | 16.09 | Fair | CLR | 27 | 22 | 74% | 29 | 76.12 | 0.0 | ||||||
| 07 | 19:53 | S 15 | 16.09 | A Few Clouds | FEW040 | 28 | 20 | 62% | 30 | 76.07 | 0.0 | ||||||
| 07 | 18:53 | S 19 | 16.09 | Fair | CLR | 29 | 19 | 55% | 30 | 76.05 | 0.0 | ||||||
| 07 | 16:53 | SE 20 G 28 | 16.09 | A Few Clouds | FEW040 | 31 | 21 | 55% | 34 | 76.05 | 0.0 | ||||||
| 07 | 15:53 | SE 13 | 16.09 | A Few Clouds | FEW040 | 31 | 21 | 55% | 34 | 76.07 | 0.0 | ||||||
| 07 | 14:53 | SE 13 | 16.09 | A Few Clouds | FEW040 | 31 | 21 | 55% | 34 | 76.12 | 0.0 | ||||||
| 07 | 13:53 | SE 17 | 16.09 | A Few Clouds | FEW036 | 31 | 22 | 59% | 35 | 76.17 | 0.0 | ||||||
| 07 | 12:53 | SE 15 | 16.09 | A Few Clouds | FEW036 | 31 | 22 | 59% | 35 | 76.23 | 0.0 | ||||||
| 07 | 11:53 | SE 15 | 16.09 | A Few Clouds | FEW036 | 31 | 22 | 59% | 35 | 76.28 | 0.0 | ||||||
| 07 | 10:53 | S 9 | 16.09 | A Few Clouds | FEW040 | 30 | 20 | 55% | 32 | 76.28 | 0.0 | ||||||
| 07 | 09:52 | Calm | 16.09 | Fair | CLR | 28 | 21 | 66% | 30 | 76.3 | 0.0 | ||||||
| 07 | 08:48 | Vrbl 7 | 16.09 | Fair | CLR | 27 | 22 | 74% | 29 | 76.28 | 0.0 | ||||||
| 07 | 07:53 | Calm | 16.09 | Fair | CLR | 25 | 21 | 79% | 26 | 76.28 | 0.0 | ||||||
| 07 | 07:07 | Calm | 16.09 | Fair | CLR | 21 | 20 | 94% | 76.2 | 0.0 | |||||||
| 07 | 06:15 | SW 4 | 16.09 | Fair | CLR | 21 | 20 | 94% | 76.15 | 0.0 | |||||||
| 07 | 05:55 | SW 2 | 16.09 | Fair | CLR | 20 | 19 | 94% | 76.15 | 0.0 | |||||||
| 07 | 05:35 | Vrbl 2 | 16.09 | Fair | CLR | 21 | 20 | 94% | 76.15 | 0.0 | |||||||
| 07 | 05:15 | S 2 | 16.09 | Fair | CLR | 21 | 20 | 94% | 76.15 | 0.0 | |||||||
| 07 | 04:55 | S 4 | 16.09 | Fair | CLR | 21 | 20 | 94% | 76.12 | 0.0 | |||||||
| 07 | 04:35 | SE 4 | 16.09 | Fair | CLR | 23 | 21 | 89% | 76.12 | 0.0 | |||||||
| 07 | 04:15 | S 4 | 16.09 | Fair | CLR | 23 | 21 | 89% | 76.12 | 0.0 | |||||||
| 07 | 03:55 | SE 4 | 16.09 | Fair | CLR | 23 | 20 | 83% | 76.15 | 0.0 | |||||||
| 07 | 03:35 | SE 7 | 16.09 | Fair | CLR | 23 | 20 | 83% | 76.15 | 0.0 | |||||||
| 07 | 03:15 | SE 4 | 16.09 | Fair | CLR | 22 | 20 | 88% | 76.17 | 0.0 | |||||||
| 07 | 02:55 | SE 2 | 16.09 | Fair | CLR | 22 | 20 | 88% | 76.17 | 0.0 | |||||||
| 07 | 02:37 | E 4 | 16.09 | Fair | CLR | 23 | 20 | 83% | 76.2 | 0.0 | |||||||
| 07 | 02:15 | SE 6 | 16.09 | Fair | CLR | 24 | 19 | 74% | 25 | 76.2 | 0.0 | ||||||
| 07 | 01:55 | SE 6 | 16.09 | Fair | CLR | 25 | 19 | 26.9 | 23.9 | 69% | 26 | 76.23 | 0.0 | ||||
| 07 | 01:35 | E 4 | 16.09 | Fair | CLR | 25 | 19 | 69% | 26 | 76.23 | 0.0 | ||||||
| 07 | 01:15 | E 6 | 16.09 | Fair | CLR | 25 | 19 | 69% | 26 | 76.25 | 0.0 | ||||||
| 07 | 00:35 | E 9 | 16.09 | Fair | CLR | 25 | 19 | 69% | 26 | 76.25 | 0.0 | ||||||
| 07 | 00:15 | SE 9 | 16.09 | Fair | CLR | 25 | 20 | 74% | 26 | 76.25 | 0.0 | ||||||
| 06 | 23:55 | E 9 | 16.09 | Fair | CLR | 25 | 19 | 69% | 26 | 76.28 | 0.0 | ||||||
| 06 | 23:36 | E 11 | 16.09 | Fair | CLR | 25 | 20 | 74% | 26 | 76.28 | 0.0 | ||||||
| 06 | 23:15 | E 9 | 16.09 | A Few Clouds | FEW040 | 25 | 20 | 74% | 26 | 76.3 | 0.0 | ||||||
| 06 | 22:53 | E 9 | 16.09 | A Few Clouds | FEW040 | 26 | 20 | 70% | 27 | 76.28 | 0.0 | ||||||
| 06 | 21:53 | E 11 | 16.09 | A Few Clouds | FEW040 | 26 | 19 | 65% | 27 | 76.28 | 0.0 | ||||||
| 06 | 20:53 | E 11 | 16.09 | A Few Clouds | FEW043 | 26 | 19 | 65% | 27 | 76.25 | 0.0 | ||||||
| 06 | 19:53 | E 13 | 16.09 | A Few Clouds | FEW030 | 27 | 19 | 62% | 28 | 76.25 | 0.0 | ||||||
| 06 | 18:53 | E 13 | 16.09 | Fair | CLR | 28 | 19 | 58% | 29 | 76.25 | 0.0 | ||||||
| 06 | 17:53 | E 13 | 16.09 | A Few Clouds | FEW040 | 29 | 20 | 58% | 31 | 76.2 | 0.0 | ||||||
| 06 | 16:57 | E 17 G 30 | 16.09 | Fair | CLR | 29 | 19 | 55% | 30 | 76.2 | 0.0 | ||||||
| 06 | 15:53 | E 15 | 16.09 | A Few Clouds | FEW032 | 29 | 21 | 62% | 31 | 76.23 | 0.0 | ||||||
| 06 | 15:00 | E 17 | 16.09 | Fair | CLR | 29 | 21 | 62% | 31 | 76.28 | 0.0 | ||||||
| 06 | 13:53 | SE 15 G 28 | 16.09 | Fair | CLR | 29 | 21 | 62% | 31 | 76.3 | 0.0 | ||||||
| 06 | 12:53 | E 20 | 16.09 | A Few Clouds | FEW025 | 29 | 22 | 66% | 32 | 76.35 | 0.0 | ||||||
| 06 | 11:53 | SE 19 | 16.09 | A Few Clouds | FEW025 | 29 | 22 | 66% | 32 | 76.35 | 0.0 | ||||||
| 06 | 10:53 | SE 19 | 16.09 | Partly Cloudy | SCT025 | 28 | 22 | 70% | 31 | 76.33 | 0.0 | ||||||
| 06 | 10:01 | E 15 | 16.09 | Fair | CLR | 28 | 22 | 70% | 31 | 76.3 | 0.0 | ||||||
| 06 | 08:53 | E 15 | 16.09 | Partly Cloudy | SCT025 | 26 | 22 | 79% | 28 | 76.28 | 0.0 | ||||||
| 06 | 07:53 | SE 15 | 16.09 | Partly Cloudy | SCT020 | 26 | 22 | 79% | 28 | 76.28 | 0.0 | ||||||
| 06 | 06:53 | SE 9 | 16.09 | A Few Clouds | FEW016 | 24 | 22 | 89% | 24 | 76.23 | 0.0 | ||||||
| 06 | 06:15 | E 6 | 16.09 | Fair | CLR | 24 | 22 | 89% | 24 | 76.2 | 0.0 | ||||||
| 06 | 05:55 | E 7 | 16.09 | Partly Cloudy | SCT018 | 25 | 22 | 83% | 26 | 76.17 | 0.0 | ||||||
| 06 | 05:35 | E 9 | 16.09 | Mostly Cloudy | BKN018 | 25 | 22 | 83% | 26 | 76.2 | 0.0 | ||||||
| 06 | 05:15 | E 9 | 16.09 | Partly Cloudy | SCT016 | 25 | 22 | 83% | 26 | 76.17 | 0.0 | ||||||
| 06 | 04:55 | E 9 | 16.09 | Fair | CLR | 24 | 22 | 89% | 24 | 76.17 | 0.0 | ||||||
| 06 | 04:35 | E 6 | 16.09 | A Few Clouds | FEW017 | 24 | 22 | 89% | 24 | 76.17 | 0.0 | ||||||
| 06 | 04:15 | E 6 | 16.09 | Fair | CLR | 25 | 22 | 83% | 26 | 76.17 | 0.0 | ||||||
| 06 | 03:55 | E 7 | 16.09 | Fair | CLR | 25 | 22 | 83% | 26 | 76.15 | 0.0 | ||||||
| 06 | 03:35 | E 11 | 16.09 | A Few Clouds | FEW018 | 25 | 22 | 83% | 26 | 76.15 | 0.0 | ||||||
| 06 | 03:15 | E 9 | 16.09 | A Few Clouds | FEW018 | 25 | 22 | 83% | 26 | 76.15 | 0.0 | ||||||
| 06 | 02:55 | E 11 | 16.09 | Partly Cloudy | FEW018 SCT070 | 25 | 22 | 83% | 26 | 76.17 | 0.0 | ||||||
| 06 | 02:35 | E 11 | 16.09 | A Few Clouds | FEW018 | 25 | 22 | 83% | 26 | 76.17 | 0.0 | ||||||
| 06 | 02:15 | E 9 | 16.09 | A Few Clouds | FEW020 | 25 | 21 | 79% | 26 | 76.2 | 0.0 | ||||||
| 06 | 01:55 | E 9 | 16.09 | A Few Clouds | FEW018 | 25 | 22 | 25.8 | 25.2 | 83% | 26 | 76.2 | 0.0 | ||||
| 06 | 01:35 | E 9 | 16.09 | Fair | CLR | 25 | 22 | 83% | 26 | 76.2 | 0.0 | ||||||
| 06 | 01:15 | E 15 | 16.09 | Fair | CLR | 25 | 22 | 83% | 26 | 76.23 | 0.0 | ||||||
| 06 | 00:55 | E 11 | 16.09 | A Few Clouds | FEW085 | 25 | 22 | 83% | 26 | 76.23 | 0.0 | ||||||
| 06 | 00:35 | E 11 | 16.09 | Fair | CLR | 25 | 21 | 79% | 26 | 76.25 | 0.0 | ||||||
| 06 | 00:15 | E 11 | 16.09 | Partly Cloudy | SCT060 | 25 | 21 | 79% | 26 | 76.25 | 0.0 | ||||||
| 05 | 23:55 | E 13 | 16.09 | Mostly Cloudy | BKN070 | 25 | 21 | 79% | 26 | 76.25 | 0.0 | ||||||
| 05 | 23:35 | E 13 | 16.09 | Overcast | FEW023 FEW030 OVC070 | 26 | 21 | 74% | 27 | 76.25 | 0.0 | ||||||
| 05 | 23:15 | E 11 | 16.09 | Mostly Cloudy | SCT021 BKN070 | 25 | 21 | 79% | 26 | 76.25 | 0.0 | ||||||
| 05 | 21:48 | E 15 | 16.09 | Partly Cloudy | FEW021 SCT027 | 26 | 21 | 74% | 27 | 76.17 | 0.0 | ||||||
| 05 | 21:06 | E 13 | 16.09 | A Few Clouds | FEW021 FEW029 | 25 | 21 | 79% | 26 | 76.15 | 0.0 | ||||||
| Date | Time (edt) | Wind (kph) | Vis. (km) | Weather | Sky Cond. | Air | Dwpt | Max. | Min. | Relative Humidity | Wind Chill (°C) | Heat Index (°C) | altimeter (cm) | sea level (mb) | 1 hr | 3 hr | 6 hr |
| 6 hour | |||||||||||||||||
| Temperature (ºC) | Pressure | Precipitation (cm) | |||||||||||||||